Time;durP1;ratioP1;P1;durP2;ratioP2;P2;SDS_P1;SDS_P2;PMS_P1;PMS_P2;Temp;Humidity;BMP_temperature;BMP_pressure;BME280_temperature;BME280_humidity;BME280_pressure;Samples;Min_cycle;Max_cycle;Signal;HPM_P1;HPM_P2
2022/10/24 00:01:50;;;;;;;6.55;1.98;;;17.90;99.90;;;;;;4948030;28;20058;-74
2022/10/24 00:04:16;;;;;;;8.00;2.50;;;17.90;99.90;;;;;;4946382;28;20469;-74
2022/10/24 00:06:41;;;;;;;12.07;2.80;;;17.90;99.90;;;;;;4950240;28;20657;-76
2022/10/24 00:09:07;;;;;;;13.77;2.15;;;18.00;99.90;;;;;;4946651;28;20065;-75
2022/10/24 00:11:33;;;;;;;8.98;2.42;;;18.00;99.90;;;;;;4953969;28;20119;-75
2022/10/24 00:13:59;;;;;;;7.18;2.10;;;18.00;99.90;;;;;;4949705;28;20079;-77
2022/10/24 00:16:26;;;;;;;11.30;1.98;;;18.00;99.90;;;;;;4961244;28;20591;-77
2022/10/24 00:18:52;;;;;;;8.05;1.88;;;18.00;99.90;;;;;;4954518;28;20095;-76
2022/10/24 00:21:21;;;;;;;5.13;1.98;;;18.00;99.90;;;;;;4951337;28;20488;-74
2022/10/24 00:23:47;;;;;;;10.57;2.50;;;18.00;99.90;;;;;;4945947;28;20028;-75
2022/10/24 00:26:13;;;;;;;13.10;2.38;;;17.90;99.90;;;;;;4950743;28;20042;-74
2022/10/24 00:28:42;;;;;;;3.72;1.95;;;17.90;99.90;;;;;;4954614;28;20065;-75
2022/10/24 00:31:15;;;;;;;8.20;2.00;;;17.80;99.90;;;;;;4952626;28;20027;-76
2022/10/24 00:33:42;;;;;;;7.63;2.10;;;17.80;99.90;;;;;;4950063;28;20024;-76
2022/10/24 00:36:18;;;;;;;9.25;2.70;;;17.80;99.90;;;;;;4960203;28;20033;-76
2022/10/24 00:38:44;;;;;;;10.23;2.50;;;17.90;99.90;;;;;;4952336;28;20024;-75
2022/10/24 00:41:17;;;;;;;9.13;2.22;;;17.80;99.90;;;;;;4953629;28;20427;-75
2022/10/24 00:43:43;;;;;;;5.45;2.28;;;17.90;99.90;;;;;;4954450;28;20058;-76
2022/10/24 00:46:09;;;;;;;6.60;2.03;;;17.90;99.90;;;;;;4958304;28;20090;-76
2022/10/24 00:48:41;;;;;;;20.83;2.75;;;17.90;99.90;;;;;;4950695;28;20035;-74
2022/10/24 00:51:15;;;;;;;7.90;2.33;;;17.90;99.90;;;;;;4945762;28;20118;-76
2022/10/24 00:53:46;;;;;;;9.35;2.25;;;18.00;99.90;;;;;;4948319;28;20031;-75
2022/10/24 00:56:17;;;;;;;7.47;2.15;;;17.90;99.90;;;;;;4950270;28;20042;-76
2022/10/24 00:58:47;;;;;;;11.00;2.38;;;17.90;99.90;;;;;;4954097;28;20023;-77
2022/10/24 01:01:15;;;;;;;8.25;2.80;;;17.80;99.90;;;;;;4959171;28;20021;-75
2022/10/24 01:03:41;;;;;;;13.95;2.83;;;17.80;99.90;;;;;;4963976;28;20023;-76
2022/10/24 01:06:12;;;;;;;7.15;2.50;;;17.70;99.90;;;;;;4963647;28;20037;-76
2022/10/24 01:08:42;;;;;;;14.73;2.80;;;17.70;99.90;;;;;;4961649;28;20033;-75
2022/10/24 01:11:17;;;;;;;4.80;2.42;;;17.70;99.90;;;;;;4957509;28;20019;-76
2022/10/24 01:13:48;;;;;;;12.40;3.22;;;17.70;99.90;;;;;;4952660;28;20032;-74
2022/10/24 01:16:26;;;;;;;8.68;2.50;;;17.70;99.90;;;;;;4950855;28;20086;-76
2022/10/24 01:19:19;;;;;;;8.95;2.42;;;17.80;99.90;;;;;;4952735;28;20230;-75
2022/10/24 01:21:48;;;;;;;;;;;17.70;99.90;;;;;;4953349;28;20048;-75
2022/10/24 01:24:35;;;;;;;10.18;2.50;;;17.80;99.90;;;;;;4964033;28;19932;-75
2022/10/24 01:27:20;;;;;;;8.18;3.20;;;17.70;99.90;;;;;;4967247;28;20031;-76
2022/10/24 01:30:02;;;;;;;5.80;2.78;;;17.70;99.90;;;;;;4968677;28;20062;-75
2022/10/24 01:32:53;;;;;;;7.63;4.00;;;17.70;99.90;;;;;;4956854;28;20023;-76
2022/10/24 01:35:48;;;;;;;11.30;3.10;;;17.70;99.90;;;;;;4958031;28;20055;-75
2022/10/24 01:38:14;;;;;;;4.53;2.55;;;17.60;99.90;;;;;;4954278;28;20623;-79
2022/10/24 01:40:49;;;;;;;12.25;2.50;;;17.60;99.90;;;;;;4951584;28;20043;-75
2022/10/24 01:43:20;;;;;;;5.43;3.00;;;17.60;99.90;;;;;;4962353;28;20114;-75
2022/10/24 01:45:50;;;;;;;7.78;2.60;;;17.60;99.90;;;;;;4953574;28;20033;-75
2022/10/24 01:48:20;;;;;;;11.27;2.40;;;17.60;99.90;;;;;;4955239;28;20026;-76
2022/10/24 01:50:50;;;;;;;7.88;2.17;;;17.70;99.90;;;;;;4955838;28;20101;-75
2022/10/24 01:53:16;;;;;;;5.50;1.70;;;17.70;99.90;;;;;;4954064;28;20122;-74
2022/10/24 01:55:44;;;;;;;7.32;2.40;;;17.80;99.90;;;;;;4956111;28;20454;-76
2022/10/24 01:58:09;;;;;;;10.15;2.28;;;17.80;99.90;;;;;;4954283;28;20032;-74
2022/10/24 02:00:38;;;;;;;11.85;2.35;;;17.80;99.90;;;;;;4958698;28;20030;-74
2022/10/24 02:03:18;;;;;;;3.65;1.63;;;17.90;99.90;;;;;;4957409;28;20086;-75
2022/10/24 02:05:54;;;;;;;10.38;2.08;;;17.80;99.90;;;;;;4959555;28;20019;-75
2022/10/24 02:08:27;;;;;;;3.85;1.90;;;17.90;99.90;;;;;;4950437;28;20113;-77
2022/10/24 02:10:58;;;;;;;5.43;1.98;;;17.90;99.90;;;;;;4952286;28;20460;-75
2022/10/24 02:13:44;;;;;;;3.35;1.75;;;17.90;99.90;;;;;;4960736;28;20122;-74
2022/10/24 02:16:10;;;;;;;7.35;2.35;;;17.80;99.90;;;;;;4952542;28;20024;-76
2022/10/24 02:18:38;;;;;;;7.65;1.92;;;17.90;99.90;;;;;;4958865;28;20029;-74
2022/10/24 02:21:31;;;;;;;6.28;2.10;;;17.80;99.90;;;;;;4956884;28;20027;-76
2022/10/24 02:24:14;;;;;;;11.48;2.60;;;17.90;99.90;;;;;;4954206;28;20035;-75
2022/10/24 02:26:54;;;;;;;15.00;2.47;;;17.80;99.90;;;;;;4945534;28;20043;-75
2022/10/24 02:29:38;;;;;;;8.68;2.75;;;17.70;99.90;;;;;;4956541;28;20114;-75
2022/10/24 02:32:08;;;;;;;7.38;2.03;;;17.70;99.90;;;;;;4953369;28;20094;-76
2022/10/24 02:34:37;;;;;;;9.82;2.80;;;17.60;99.90;;;;;;4953026;28;20028;-75
2022/10/24 02:37:04;;;;;;;12.32;2.45;;;17.60;99.90;;;;;;4957129;28;20027;-73
2022/10/24 02:39:31;;;;;;;13.90;2.67;;;17.50;99.90;;;;;;4960798;28;20051;-74
2022/10/24 02:41:58;;;;;;;8.25;2.58;;;17.50;99.90;;;;;;4954324;28;20038;-75
2022/10/24 02:44:25;;;;;;;9.40;2.38;;;17.40;99.90;;;;;;4953683;28;20118;-74
2022/10/24 02:46:55;;;;;;;11.50;2.30;;;17.40;99.90;;;;;;4954670;28;20022;-74
2022/10/24 02:49:21;;;;;;;11.55;2.65;;;17.40;99.90;;;;;;4954456;28;20086;-75
2022/10/24 02:51:48;;;;;;;6.07;1.90;;;17.30;99.90;;;;;;4957154;28;20035;-74
2022/10/24 02:54:14;;;;;;;7.22;2.25;;;17.30;99.90;;;;;;4957969;28;20031;-75
2022/10/24 02:56:47;;;;;;;9.00;2.10;;;17.20;99.90;;;;;;4955900;28;20103;-74
2022/10/24 02:59:13;;;;;;;11.40;2.65;;;17.30;99.90;;;;;;4944803;28;20063;-76
2022/10/24 03:01:38;;;;;;;10.05;2.15;;;17.20;99.90;;;;;;4959195;28;20113;-75
2022/10/24 03:04:04;;;;;;;6.50;2.33;;;17.20;99.90;;;;;;4955852;28;20046;-74
2022/10/24 03:06:30;;;;;;;9.90;2.38;;;17.20;99.90;;;;;;4953771;28;20023;-75
2022/10/24 03:08:56;;;;;;;10.27;2.25;;;17.20;99.90;;;;;;4959597;28;20038;-74
2022/10/24 03:11:21;;;;;;;11.60;2.22;;;17.20;99.90;;;;;;4958046;28;20479;-74
2022/10/24 03:13:47;;;;;;;5.63;2.40;;;17.20;99.90;;;;;;4953380;29;20693;-74
2022/10/24 03:16:13;;;;;;;8.85;2.45;;;17.20;99.90;;;;;;4954205;28;20449;-75
2022/10/24 03:18:41;;;;;;;4.63;2.22;;;17.20;99.90;;;;;;4957144;28;20019;-74
2022/10/24 03:21:06;;;;;;;7.72;3.00;;;17.10;99.90;;;;;;4954835;28;20037;-76
2022/10/24 03:23:32;;;;;;;8.40;1.88;;;17.20;99.90;;;;;;4957858;28;20030;-74
2022/10/24 03:25:58;;;;;;;8.55;2.15;;;17.20;99.90;;;;;;4956386;28;20027;-75
2022/10/24 03:28:23;;;;;;;12.07;2.47;;;17.20;99.90;;;;;;4950912;28;20031;-74
2022/10/24 03:30:49;;;;;;;3.65;1.80;;;17.00;99.90;;;;;;4951679;28;20039;-74
2022/10/24 03:33:15;;;;;;;9.45;2.08;;;17.10;99.90;;;;;;4966884;28;20034;-75
2022/10/24 03:35:41;;;;;;;8.35;1.98;;;17.00;99.90;;;;;;4958262;28;20139;-75
2022/10/24 03:38:07;;;;;;;12.32;2.28;;;17.10;99.90;;;;;;4960686;28;20089;-75
2022/10/24 03:40:36;;;;;;;8.57;2.13;;;17.20;99.90;;;;;;4955726;28;20027;-76
2022/10/24 03:43:05;;;;;;;6.90;1.98;;;17.20;99.90;;;;;;4956357;28;20063;-77
2022/10/24 03:45:33;;;;;;;4.65;2.13;;;17.30;99.90;;;;;;4957343;28;20093;-75
2022/10/24 03:47:58;;;;;;;9.48;1.85;;;17.20;99.90;;;;;;4954002;28;20074;-75
2022/10/24 03:50:24;;;;;;;11.57;3.05;;;17.30;99.90;;;;;;4956904;28;20422;-78
2022/10/24 03:52:49;;;;;;;5.30;1.70;;;17.20;99.90;;;;;;4952381;28;20032;-74
2022/10/24 03:55:15;;;;;;;4.45;1.75;;;17.20;99.90;;;;;;4948773;28;20121;-75
2022/10/24 03:57:43;;;;;;;7.78;2.05;;;17.20;99.90;;;;;;4950643;28;20424;-75
2022/10/24 04:00:10;;;;;;;9.73;1.70;;;17.30;99.90;;;;;;4954096;28;20058;-75
2022/10/24 04:02:35;;;;;;;6.70;1.92;;;17.30;99.90;;;;;;4939855;28;20098;-74
2022/10/24 04:05:01;;;;;;;5.53;1.95;;;17.30;99.90;;;;;;4952891;28;20031;-75
2022/10/24 04:07:26;;;;;;;5.65;2.17;;;17.30;99.90;;;;;;4954316;28;20440;-77
2022/10/24 04:09:52;;;;;;;5.20;1.70;;;17.30;99.90;;;;;;4963297;28;20026;-75
2022/10/24 04:12:18;;;;;;;10.48;1.55;;;17.40;99.90;;;;;;4954979;28;20066;-74
2022/10/24 04:14:43;;;;;;;14.68;1.80;;;17.30;99.90;;;;;;4952882;28;20063;-74
2022/10/24 04:17:09;;;;;;;4.88;2.03;;;17.30;99.90;;;;;;4949932;28;20023;-75
2022/10/24 04:19:36;;;;;;;5.63;1.80;;;17.30;99.90;;;;;;4952371;28;20349;-75
2022/10/24 04:22:02;;;;;;;6.15;2.13;;;17.20;99.90;;;;;;4954209;28;20032;-75
2022/10/24 04:24:28;;;;;;;10.85;1.73;;;17.10;99.90;;;;;;4958750;28;20041;-75
2022/10/24 04:26:53;;;;;;;10.02;1.75;;;17.10;99.90;;;;;;4949938;28;20027;-72
2022/10/24 04:29:19;;;;;;;7.18;1.88;;;17.10;99.90;;;;;;4949579;28;20129;-76
2022/10/24 04:31:45;;;;;;;12.90;2.38;;;17.10;99.90;;;;;;4949502;28;20031;-75
2022/10/24 04:34:11;;;;;;;2.65;1.73;;;17.00;99.90;;;;;;4953089;28;20039;-75
2022/10/24 04:36:39;;;;;;;10.65;2.15;;;16.90;99.90;;;;;;4951999;28;20019;-75
2022/10/24 04:39:05;;;;;;;7.00;2.55;;;16.80;99.90;;;;;;4952814;28;20042;-75
2022/10/24 04:41:31;;;;;;;4.85;1.88;;;16.90;99.90;;;;;;4953551;28;20023;-73
2022/10/24 04:43:57;;;;;;;7.60;1.95;;;16.80;99.90;;;;;;4953857;28;20031;-75
2022/10/24 04:46:22;;;;;;;8.20;1.80;;;16.80;99.90;;;;;;4955500;28;20454;-76
2022/10/24 04:48:48;;;;;;;4.05;1.75;;;16.80;99.90;;;;;;4951518;28;20043;-75
2022/10/24 04:51:14;;;;;;;4.28;1.77;;;16.80;99.90;;;;;;4956474;28;20046;-74
2022/10/24 04:53:39;;;;;;;5.57;1.67;;;16.80;99.90;;;;;;4953729;28;20042;-75
2022/10/24 04:56:05;;;;;;;7.28;1.70;;;16.90;99.90;;;;;;4956703;28;20033;-76
2022/10/24 04:58:33;;;;;;;8.25;1.58;;;17.00;99.90;;;;;;4951796;28;20093;-74
2022/10/24 05:00:59;;;;;;;4.63;1.60;;;17.00;99.90;;;;;;4955185;28;20118;-75
2022/10/24 05:03:27;;;;;;;5.82;1.85;;;17.00;99.90;;;;;;4949026;28;20234;-75
2022/10/24 05:05:53;;;;;;;2.15;1.33;;;17.10;99.90;;;;;;4961786;28;20446;-76
2022/10/24 05:08:18;;;;;;;5.45;1.20;;;17.10;99.90;;;;;;4946673;28;20121;-75
2022/10/24 05:10:44;;;;;;;2.80;1.38;;;17.20;99.90;;;;;;4951622;28;20039;-75
2022/10/24 05:13:10;;;;;;;5.25;1.48;;;17.10;99.90;;;;;;4949955;28;20146;-75
2022/10/24 05:15:36;;;;;;;5.90;1.77;;;17.20;99.90;;;;;;4952681;28;20035;-74
2022/10/24 05:18:02;;;;;;;3.63;1.55;;;17.30;99.90;;;;;;4953402;28;20102;-74
2022/10/24 05:20:28;;;;;;;2.20;1.30;;;17.20;99.90;;;;;;4955417;28;20020;-76
2022/10/24 05:22:53;;;;;;;4.80;1.20;;;17.20;99.90;;;;;;4950936;28;20016;-77
2022/10/24 05:25:22;;;;;;;3.40;1.40;;;17.20;99.90;;;;;;4954192;28;20169;-75
2022/10/24 05:27:47;;;;;;;8.85;1.65;;;17.20;99.90;;;;;;4969614;28;20024;-75
2022/10/24 05:30:16;;;;;;;3.63;1.20;;;17.20;99.90;;;;;;4962403;28;20048;-75
2022/10/24 05:32:41;;;;;;;5.72;1.45;;;17.10;99.90;;;;;;4954405;28;20105;-75
2022/10/24 05:35:08;;;;;;;7.47;1.40;;;17.10;99.90;;;;;;4952179;28;20031;-75
2022/10/24 05:37:34;;;;;;;3.67;1.55;;;17.10;99.90;;;;;;4946912;28;20023;-76
2022/10/24 05:39:59;;;;;;;21.73;1.50;;;17.00;99.90;;;;;;4964285;28;20031;-75
2022/10/24 05:42:25;;;;;;;6.35;1.23;;;16.80;99.90;;;;;;4961542;28;20122;-75
2022/10/24 05:44:53;;;;;;;2.65;1.70;;;16.90;99.90;;;;;;4956025;28;20103;-75
2022/10/24 05:47:18;;;;;;;7.53;1.30;;;16.90;99.90;;;;;;4956748;28;20035;-76
2022/10/24 05:49:44;;;;;;;7.65;1.35;;;16.80;99.90;;;;;;4962890;28;20027;-75
2022/10/24 05:52:12;;;;;;;9.02;1.27;;;16.90;99.90;;;;;;4959617;28;20425;-76
2022/10/24 05:54:40;;;;;;;11.20;1.55;;;16.80;99.90;;;;;;4956945;28;20516;-74
2022/10/24 05:57:07;;;;;;;4.00;1.40;;;16.80;99.90;;;;;;4953745;28;20334;-74
2022/10/24 05:59:33;;;;;;;3.05;1.13;;;16.80;99.90;;;;;;4956109;28;20403;-74
2022/10/24 06:02:01;;;;;;;5.20;1.40;;;16.80;99.90;;;;;;4951438;28;20023;-74
2022/10/24 06:04:27;;;;;;;6.72;1.20;;;16.80;99.90;;;;;;4955138;28;20475;-75
2022/10/24 06:06:52;;;;;;;7.60;1.60;;;16.80;99.90;;;;;;4958075;28;20045;-74
2022/10/24 06:09:22;;;;;;;2.95;1.42;;;16.70;99.90;;;;;;4958577;28;20049;-73
2022/10/24 06:11:48;;;;;;;6.00;1.80;;;16.70;99.90;;;;;;4958402;28;20027;-75
2022/10/24 06:14:15;;;;;;;4.72;1.10;;;16.70;99.90;;;;;;4955990;28;20031;-75
2022/10/24 06:16:41;;;;;;;3.58;1.13;;;16.60;99.90;;;;;;4954732;28;20085;-75
2022/10/24 06:19:07;;;;;;;11.88;1.73;;;16.70;99.90;;;;;;4950741;28;20139;-74
2022/10/24 06:21:32;;;;;;;4.70;1.58;;;16.60;99.90;;;;;;4953022;28;20038;-77
2022/10/24 06:23:58;;;;;;;5.75;1.23;;;16.60;99.90;;;;;;4955996;28;20024;-76
2022/10/24 06:26:26;;;;;;;8.70;1.50;;;16.70;99.90;;;;;;4955562;28;20153;-75
2022/10/24 06:28:53;;;;;;;5.30;1.65;;;16.70;99.90;;;;;;4954534;28;20032;-74
2022/10/24 06:31:19;;;;;;;7.72;1.38;;;16.70;99.90;;;;;;4959323;28;20357;-75
2022/10/24 06:33:45;;;;;;;9.48;1.67;;;16.70;99.90;;;;;;4956575;28;20672;-75
2022/10/24 06:36:11;;;;;;;5.20;1.60;;;16.70;99.90;;;;;;4959250;28;20078;-75
2022/10/24 06:38:37;;;;;;;6.10;1.30;;;16.80;99.90;;;;;;4958179;28;20027;-76
2022/10/24 06:41:12;;;;;;;10.40;1.90;;;16.80;99.90;;;;;;4957790;28;20031;-75
2022/10/24 06:43:40;;;;;;;3.42;1.42;;;16.80;99.90;;;;;;4958102;28;20054;-75
2022/10/24 06:46:07;;;;;;;11.00;1.83;;;16.80;99.90;;;;;;4954433;28;20063;-75
2022/10/24 06:48:34;;;;;;;6.07;1.40;;;16.70;99.90;;;;;;4955730;28;20041;-75
2022/10/24 06:50:59;;;;;;;4.55;1.40;;;16.80;99.90;;;;;;4954493;28;20031;-75
2022/10/24 06:53:25;;;;;;;6.13;1.35;;;16.80;99.90;;;;;;4950874;28;20090;-74
2022/10/24 06:55:51;;;;;;;5.55;1.45;;;16.90;99.90;;;;;;4955649;28;20346;-74
2022/10/24 06:58:16;;;;;;;7.43;1.40;;;16.80;99.90;;;;;;4958709;28;20034;-74
2022/10/24 07:00:42;;;;;;;10.05;1.98;;;16.80;99.90;;;;;;4957973;28;20086;-75
2022/10/24 07:03:13;;;;;;;4.70;1.50;;;16.80;99.90;;;;;;4955312;28;20051;-75
2022/10/24 07:05:41;;;;;;;7.20;1.33;;;16.90;99.90;;;;;;4955604;28;20118;-75
2022/10/24 07:08:09;;;;;;;4.47;1.05;;;16.80;99.90;;;;;;4951875;28;20350;-75
2022/10/24 07:10:35;;;;;;;6.53;1.52;;;16.80;99.90;;;;;;4955161;28;20027;-75
2022/10/24 07:13:03;;;;;;;7.75;1.63;;;16.90;99.90;;;;;;4950840;28;20035;-74
2022/10/24 07:15:29;;;;;;;14.35;1.48;;;16.80;99.90;;;;;;4947967;28;20542;-75
2022/10/24 07:17:57;;;;;;;7.97;1.60;;;16.80;99.90;;;;;;4959921;28;20027;-75
2022/10/24 07:20:23;;;;;;;1.80;1.00;;;16.80;99.90;;;;;;4958717;28;20034;-75
2022/10/24 07:22:48;;;;;;;5.90;1.55;;;16.90;99.90;;;;;;4955504;28;20421;-73
2022/10/24 07:25:14;;;;;;;6.70;1.65;;;17.00;99.90;;;;;;4950672;28;20054;-74
2022/10/24 07:27:40;;;;;;;10.15;1.83;;;16.90;99.90;;;;;;4955256;28;20027;-76
2022/10/24 07:30:07;;;;;;;6.88;1.55;;;16.90;99.90;;;;;;4954552;28;20146;-74
2022/10/24 07:32:35;;;;;;;7.40;1.70;;;17.00;99.90;;;;;;4953314;28;20885;-73
2022/10/24 07:35:01;;;;;;;11.68;1.90;;;17.10;99.90;;;;;;4970645;28;20112;-74
2022/10/24 07:37:26;;;;;;;5.50;1.50;;;17.10;99.90;;;;;;4970943;28;20106;-74
2022/10/24 07:39:52;;;;;;;3.30;1.17;;;17.10;99.90;;;;;;4956843;28;20097;-74
2022/10/24 07:42:17;;;;;;;7.15;1.10;;;17.10;99.90;;;;;;4956201;28;20426;-78
2022/10/24 07:44:44;;;;;;;8.10;1.70;;;17.20;99.90;;;;;;4958132;28;20026;-75
2022/10/24 07:47:10;;;;;;;4.03;1.00;;;17.30;99.90;;;;;;4955072;28;20146;-76
2022/10/24 07:49:37;;;;;;;13.38;1.75;;;17.30;99.90;;;;;;4952156;28;20035;-76
2022/10/24 07:52:04;;;;;;;10.73;1.85;;;17.40;99.90;;;;;;4970010;28;20042;-75
2022/10/24 07:54:29;;;;;;;16.88;1.50;;;17.50;99.90;;;;;;4954213;28;20035;-75
2022/10/24 07:56:55;;;;;;;5.57;1.20;;;17.50;99.90;;;;;;4954322;28;20497;-74
2022/10/24 07:59:21;;;;;;;12.48;2.85;;;17.50;99.90;;;;;;4954049;28;20137;-74
2022/10/24 08:01:46;;;;;;;9.07;2.13;;;17.80;99.90;;;;;;4952352;28;20031;-73
2022/10/24 08:04:12;;;;;;;8.75;1.65;;;17.80;99.90;;;;;;4950927;28;20039;-74
2022/10/24 08:06:40;;;;;;;5.32;1.40;;;17.80;99.90;;;;;;4951360;28;20032;-76
2022/10/24 08:09:06;;;;;;;3.25;1.23;;;18.00;99.90;;;;;;4957755;28;20026;-74
2022/10/24 08:11:31;;;;;;;6.38;1.42;;;17.90;99.90;;;;;;4953587;28;20067;-75
2022/10/24 08:13:57;;;;;;;5.93;1.52;;;18.00;99.90;;;;;;4954068;28;20076;-74
2022/10/24 08:16:24;;;;;;;7.15;1.58;;;18.10;99.90;;;;;;4954427;28;20428;-75
2022/10/24 08:18:52;;;;;;;14.65;4.13;;;18.10;99.90;;;;;;4951995;28;20034;-72
2022/10/24 08:21:21;;;;;;;12.05;3.30;;;18.30;99.90;;;;;;4952532;28;20030;-73
2022/10/24 08:23:51;;;;;;;10.68;1.83;;;18.40;99.90;;;;;;4951145;28;20138;-76
2022/10/24 08:26:20;;;;;;;8.27;1.40;;;18.50;99.90;;;;;;4951933;28;20408;-76
2022/10/24 08:28:46;;;;;;;5.00;1.65;;;18.50;99.90;;;;;;4957241;28;20114;-75
2022/10/24 08:31:18;;;;;;;10.93;1.80;;;18.30;99.90;;;;;;4954749;28;20129;-75
2022/10/24 08:33:44;;;;;;;11.00;2.05;;;18.30;99.90;;;;;;4954757;28;20094;-75
2022/10/24 08:36:19;;;;;;;4.28;1.58;;;18.30;99.90;;;;;;4954802;28;20073;-76
2022/10/24 08:38:44;;;;;;;7.93;1.15;;;18.30;99.90;;;;;;4952622;28;20057;-74
2022/10/24 08:41:27;;;;;;;9.05;1.50;;;18.20;99.90;;;;;;4955702;28;20047;-75
2022/10/24 08:43:55;;;;;;;8.48;1.52;;;18.20;99.90;;;;;;4954365;28;20034;-75
2022/10/24 08:46:32;;;;;;;9.45;1.40;;;18.30;99.90;;;;;;4954368;28;20031;-75
2022/10/24 08:49:11;;;;;;;11.63;1.55;;;18.40;99.90;;;;;;4967103;28;20130;-74
2022/10/24 08:52:02;;;;;;;7.35;1.75;;;18.60;99.90;;;;;;4967744;28;20027;-73
2022/10/24 08:54:35;;;;;;;10.15;2.03;;;18.60;99.90;;;;;;4953239;28;20035;-76
2022/10/24 08:57:02;;;;;;;13.15;3.88;;;18.60;99.90;;;;;;4951793;28;20066;-73
2022/10/24 08:59:33;;;;;;;8.38;1.48;;;18.60;99.90;;;;;;4947956;28;20035;-75
2022/10/24 09:02:09;;;;;;;7.70;1.30;;;18.70;99.90;;;;;;4957977;28;20029;-77
2022/10/24 09:05:00;;;;;;;4.43;1.50;;;18.60;99.90;;;;;;4957121;28;20111;-77
2022/10/24 09:07:26;;;;;;;13.95;1.70;;;18.60;99.90;;;;;;4968139;28;20042;-76
2022/10/24 09:10:02;;;;;;;14.00;2.05;;;18.70;99.90;;;;;;4954584;28;20110;-74
2022/10/24 09:12:27;;;;;;;12.00;1.75;;;18.90;99.90;;;;;;4954701;28;20019;-73
2022/10/24 09:14:59;;;;;;;5.53;1.20;;;18.90;99.90;;;;;;4943256;28;20042;-75
2022/10/24 09:17:33;;;;;;;6.80;1.45;;;18.90;99.90;;;;;;4956205;28;20440;-74
2022/10/24 09:20:20;;;;;;;7.57;1.17;;;18.90;99.90;;;;;;4951092;28;20700;-73
2022/10/24 09:22:50;;;;;;;9.38;1.98;;;18.80;99.90;;;;;;4952445;28;20453;-75
2022/10/24 09:25:31;;;;;;;14.07;1.73;;;18.90;99.90;;;;;;4957415;28;20042;-74
2022/10/24 09:28:00;;;;;;;9.50;1.55;;;18.80;99.90;;;;;;4959138;28;20050;-73
2022/10/24 09:30:29;;;;;;;8.75;1.80;;;18.80;99.90;;;;;;4960582;28;20492;-74
2022/10/24 09:32:56;;;;;;;9.30;1.83;;;18.90;99.90;;;;;;4956277;28;20127;-72
2022/10/24 09:35:27;;;;;;;7.75;1.25;;;18.90;99.90;;;;;;4953637;28;20126;-76
2022/10/24 09:38:18;;;;;;;7.00;1.80;;;18.80;99.90;;;;;;4951948;28;20557;-73
2022/10/24 09:40:49;;;;;;;11.60;1.60;;;18.80;99.90;;;;;;4946207;28;20024;-73
2022/10/24 09:43:25;;;;;;;13.60;1.60;;;18.90;99.90;;;;;;4963200;28;20023;-74
2022/10/24 09:46:01;;;;;;;8.25;1.98;;;18.80;99.90;;;;;;4956062;28;20065;-71
2022/10/24 09:48:36;;;;;;;14.10;5.00;;;18.80;99.90;;;;;;4948820;28;20155;-71
2022/10/24 09:51:02;;;;;;;8.80;1.73;;;18.80;99.90;;;;;;4973359;28;20487;-75
2022/10/24 09:53:34;;;;;;;9.48;1.88;;;18.80;99.90;;;;;;4957548;28;20038;-76
2022/10/24 09:56:05;;;;;;;21.02;2.00;;;18.80;99.90;;;;;;4959357;28;20035;-76
2022/10/24 09:58:32;;;;;;;8.88;1.60;;;18.90;99.90;;;;;;4961875;28;20437;-74
2022/10/24 10:01:04;;;;;;;5.88;1.58;;;19.00;99.90;;;;;;4963136;28;20073;-75
2022/10/24 10:03:33;;;;;;;10.75;1.55;;;19.20;99.90;;;;;;4952256;28;20031;-73
2022/10/24 10:06:18;;;;;;;7.72;1.65;;;19.20;99.90;;;;;;4951549;28;20035;-73
2022/10/24 10:08:54;;;;;;;12.15;1.80;;;19.30;99.90;;;;;;4955727;28;20039;-73
2022/10/24 10:11:31;;;;;;;11.90;1.95;;;19.30;99.90;;;;;;4948250;28;20031;-72
2022/10/24 10:14:00;;;;;;;14.52;2.17;;;19.40;99.90;;;;;;4953170;28;20114;-73
2022/10/24 10:16:29;;;;;;;5.00;1.30;;;19.60;99.90;;;;;;4957121;28;20025;-71
2022/10/24 10:19:16;;;;;;;6.47;1.55;;;19.80;99.90;;;;;;4957877;28;20519;-72
2022/10/24 10:21:59;;;;;;;10.57;1.35;;;19.70;99.90;;;;;;4977428;28;20038;-75
2022/10/24 10:24:38;;;;;;;11.07;1.67;;;19.80;99.90;;;;;;4958189;28;20109;-74
2022/10/24 10:27:31;;;;;;;7.55;1.73;;;19.70;99.90;;;;;;4961559;28;20663;-74
2022/10/24 10:30:13;;;;;;;11.07;1.65;;;20.10;99.90;;;;;;4955850;28;20028;-74
2022/10/24 10:32:42;;;;;;;11.32;1.73;;;19.90;99.90;;;;;;4956670;28;20042;-74
2022/10/24 10:35:16;;;;;;;12.05;1.75;;;19.90;99.90;;;;;;4949462;28;20060;-74
2022/10/24 10:37:51;;;;;;;7.20;1.38;;;20.00;99.90;;;;;;4946232;28;20040;-76
2022/10/24 10:40:19;;;;;;;10.25;2.05;;;20.20;99.90;;;;;;4952613;28;20038;-74
2022/10/24 10:43:15;;;;;;;17.10;2.58;;;20.20;99.90;;;;;;4955943;28;20028;-72
2022/10/24 10:45:47;;;;;;;15.02;2.13;;;20.20;99.90;;;;;;4953141;28;20329;-72
2022/10/24 10:48:28;;;;;;;14.80;1.93;;;20.60;99.90;;;;;;4960370;28;20592;-72
2022/10/24 10:51:19;;;;;;;9.02;1.60;;;21.20;99.90;;;;;;4953406;28;20035;-71
2022/10/24 10:54:07;;;;;;;5.40;1.63;;;20.90;99.40;;;;;;4953236;28;20023;-74
2022/10/24 10:56:50;;;;;;;11.45;1.83;;;21.00;99.50;;;;;;4957370;28;20023;-74
2022/10/24 10:59:27;;;;;;;11.98;1.95;;;21.00;98.90;;;;;;4953283;28;20035;-73
2022/10/24 11:02:24;;;;;;;10.65;1.33;;;21.00;98.90;;;;;;4948374;28;20127;-71
2022/10/24 11:05:20;;;;;;;9.90;2.05;;;20.60;99.90;;;;;;4951797;28;20114;-74
2022/10/24 11:08:09;;;;;;;13.30;2.08;;;20.40;99.40;;;;;;4953318;28;20489;-73
2022/10/24 11:10:43;;;;;;;9.43;1.70;;;20.30;99.90;;;;;;4955234;28;20043;-74
2022/10/24 11:13:35;;;;;;;10.45;2.28;;;20.30;99.80;;;;;;4957633;28;20520;-74
2022/10/24 11:16:06;;;;;;;11.10;2.13;;;20.50;99.90;;;;;;4955605;28;20023;-75
2022/10/24 11:18:35;;;;;;;9.77;1.88;;;20.40;99.00;;;;;;4957386;28;20015;-74
2022/10/24 11:21:09;;;;;;;11.88;2.05;;;20.40;99.20;;;;;;4958218;28;20042;-75
2022/10/24 11:23:52;;;;;;;14.75;1.95;;;20.40;98.90;;;;;;4954129;28;20036;-75
2022/10/24 11:26:34;;;;;;;8.35;1.77;;;20.20;98.70;;;;;;4948182;28;20367;-74
2022/10/24 11:29:07;;;;;;;47.70;19.33;;;20.00;98.70;;;;;;4949657;28;20039;-74
2022/10/24 11:31:39;;;;;;;170.90;74.35;;;20.00;98.80;;;;;;4956095;28;20098;-74
2022/10/24 11:34:07;;;;;;;9.30;1.85;;;20.10;98.90;;;;;;4957868;28;20021;-73
2022/10/24 11:36:42;;;;;;;7.65;1.27;;;20.20;99.00;;;;;;4959313;28;20523;-73
2022/10/24 11:39:17;;;;;;;5.70;1.70;;;20.00;98.80;;;;;;4955523;28;20027;-73
2022/10/24 11:42:10;;;;;;;9.50;1.90;;;20.00;98.60;;;;;;4955536;28;20075;-73
2022/10/24 11:44:54;;;;;;;10.03;1.70;;;20.00;98.80;;;;;;4954078;28;20031;-73
2022/10/24 11:47:22;;;;;;;13.38;1.85;;;19.90;98.80;;;;;;4958795;28;20271;-75
2022/10/24 11:49:57;;;;;;;5.80;1.42;;;19.90;98.50;;;;;;4951584;28;20035;-74
2022/10/24 11:52:31;;;;;;;9.73;2.50;;;19.90;98.20;;;;;;4952775;28;20142;-72
2022/10/24 11:55:23;;;;;;;11.60;1.92;;;19.90;98.30;;;;;;4949037;28;20048;-73
2022/10/24 11:57:55;;;;;;;16.15;2.25;;;20.30;98.00;;;;;;4952149;28;20023;-72
2022/10/24 12:00:50;;;;;;;3.80;1.58;;;21.10;97.10;;;;;;4976078;28;20480;-72
2022/10/24 12:03:30;;;;;;;11.38;1.80;;;21.00;96.30;;;;;;4956067;28;20043;-73
2022/10/24 12:06:20;;;;;;;6.63;1.58;;;20.90;96.10;;;;;;4961196;28;20023;-74
2022/10/24 12:09:04;;;;;;;11.40;1.50;;;20.90;96.20;;;;;;4953730;28;20047;-74
2022/10/24 12:12:01;;;;;;;26.67;3.30;;;21.10;96.40;;;;;;4951955;28;20477;-75
2022/10/24 12:14:47;;;;;;;9.88;2.00;;;21.00;96.60;;;;;;4951852;28;20035;-74
2022/10/24 12:17:37;;;;;;;9.98;1.60;;;20.70;96.40;;;;;;4948044;28;20035;-75
2022/10/24 12:20:10;;;;;;;8.68;1.80;;;20.60;96.80;;;;;;4953441;28;20101;-73
2022/10/24 12:22:42;;;;;;;10.57;2.05;;;20.50;96.70;;;;;;4951401;28;20034;-77
2022/10/24 12:25:18;;;;;;;13.10;2.10;;;20.30;97.00;;;;;;4964653;28;20110;-76
2022/10/24 12:27:44;;;;;;;9.18;1.58;;;20.60;97.40;;;;;;4950120;28;20685;-75
2022/10/24 12:30:17;;;;;;;5.35;1.45;;;20.50;96.70;;;;;;4951452;28;20023;-75
2022/10/24 12:33:05;;;;;;;6.03;1.45;;;20.70;96.50;;;;;;4953858;28;20039;-75
2022/10/24 12:35:33;;;;;;;13.88;2.65;;;21.50;95.30;;;;;;4946249;28;20134;-74
2022/10/24 12:38:33;;;;;;;9.98;2.35;;;21.80;95.10;;;;;;4948406;28;20039;-74
2022/10/24 12:41:36;;;;;;;12.05;2.25;;;22.10;94.30;;;;;;4948804;28;20038;-74
2022/10/24 12:44:35;;;;;;;13.18;1.88;;;21.90;94.30;;;;;;4951404;28;20038;-72
2022/10/24 12:47:21;;;;;;;11.68;2.05;;;22.40;93.70;;;;;;4951493;28;20027;-76
2022/10/24 12:49:47;;;;;;;13.07;2.00;;;22.70;92.30;;;;;;4951493;28;20396;-73
2022/10/24 12:52:33;;;;;;;11.13;1.88;;;23.20;91.70;;;;;;4957515;28;20065;-74
2022/10/24 12:55:01;;;;;;;6.97;1.70;;;24.40;88.60;;;;;;4953641;28;20024;-74
2022/10/24 12:57:38;;;;;;;8.27;1.77;;;25.50;83.90;;;;;;4956931;28;20055;-75
2022/10/24 13:00:26;;;;;;;8.95;2.13;;;27.60;77.30;;;;;;4950564;28;20127;-72
2022/10/24 13:02:57;;;;;;;11.82;2.15;;;28.30;69.10;;;;;;4952254;28;20023;-72
2022/10/24 13:05:40;;;;;;;8.55;2.30;;;30.30;65.00;;;;;;4948208;28;20042;-76